createdAt,value
2023-05-19T00:00:37.166Z,93.77
2023-05-19T00:01:37.154Z,93.67
2023-05-19T00:02:37.219Z,93.57
2023-05-19T00:03:37.177Z,93.47
2023-05-19T00:04:37.113Z,93.26
2023-05-19T00:05:37.155Z,93.30
2023-05-19T00:06:37.083Z,93.30
2023-05-19T00:07:37.075Z,93.20
2023-05-19T00:08:37.072Z,93.20
2023-05-19T00:09:37.058Z,93.10
2023-05-19T00:10:37.050Z,93.20
2023-05-19T00:11:37.048Z,93.30
2023-05-19T00:12:37.025Z,93.20
2023-05-19T00:13:37.018Z,93.06
2023-05-19T00:14:36.997Z,93.10
2023-05-19T00:15:37.001Z,92.96
2023-05-19T00:16:36.971Z,92.96
2023-05-19T00:17:36.971Z,92.96
2023-05-19T00:18:36.988Z,93.06
2023-05-19T00:19:36.949Z,93.06
2023-05-19T00:20:36.936Z,93.16
2023-05-19T00:21:36.931Z,93.30
2023-05-19T00:22:36.933Z,93.41
2023-05-19T00:23:36.902Z,93.47
2023-05-19T00:24:36.888Z,93.62
2023-05-19T00:25:36.876Z,93.82
2023-05-19T00:26:36.874Z,94.02
2023-05-19T00:27:36.870Z,94.12
2023-05-19T00:28:36.849Z,94.02
2023-05-19T00:29:36.840Z,93.82
2023-05-19T00:30:36.839Z,93.92
2023-05-19T00:31:36.849Z,93.82
2023-05-19T00:32:36.822Z,93.92
2023-05-19T00:33:36.806Z,94.64
2023-05-19T00:34:36.773Z,95.05
2023-05-19T00:35:36.763Z,94.33
2023-05-19T00:36:36.759Z,94.12
2023-05-19T00:37:36.767Z,94.12
2023-05-19T00:38:36.744Z,94.12
2023-05-19T00:39:36.726Z,94.02
2023-05-19T00:40:36.719Z,94.23
2023-05-19T00:41:36.716Z,94.33
2023-05-19T00:42:36.704Z,93.92
2023-05-19T00:43:36.683Z,94.12
2023-05-19T00:44:36.690Z,94.54
2023-05-19T00:45:36.666Z,94.74
2023-05-19T00:46:36.692Z,94.74
2023-05-19T00:47:36.644Z,94.33
2023-05-19T00:48:36.612Z,94.43
2023-05-19T00:49:36.619Z,94.23
2023-05-19T00:50:36.599Z,94.43
2023-05-19T00:51:36.583Z,94.43
2023-05-19T00:52:36.600Z,94.43
2023-05-19T00:53:36.573Z,94.43
2023-05-19T00:54:36.572Z,94.64
2023-05-19T00:55:36.543Z,94.54
2023-05-19T00:56:36.546Z,94.54
2023-05-19T00:57:36.532Z,94.64
2023-05-19T00:58:36.506Z,94.54
2023-05-19T00:59:36.495Z,94.54
2023-05-19T01:00:36.527Z,94.74
2023-05-19T01:01:36.484Z,94.84
2023-05-19T01:02:36.552Z,94.74
2023-05-19T01:03:36.609Z,94.33
2023-05-19T01:04:36.445Z,94.12
2023-05-19T01:05:36.420Z,94.54
2023-05-19T01:06:36.433Z,93.92
2023-05-19T01:07:36.424Z,93.71
2023-05-19T01:08:36.450Z,93.92
2023-05-19T01:09:36.389Z,94.23
2023-05-19T01:10:36.388Z,94.74
2023-05-19T01:11:36.375Z,94.84
2023-05-19T01:12:36.361Z,94.64
2023-05-19T01:13:36.631Z,94.33
2023-05-19T01:14:36.346Z,94.33
2023-05-19T01:15:36.325Z,93.92
2023-05-19T01:16:36.350Z,94.23
2023-05-19T01:17:36.368Z,94.33
2023-05-19T01:18:36.282Z,94.43
2023-05-19T01:19:36.266Z,94.64
2023-05-19T01:20:36.266Z,94.95
2023-05-19T01:21:36.285Z,94.95
2023-05-19T01:22:36.235Z,94.84
2023-05-19T01:23:36.234Z,94.84
2023-05-19T01:24:36.226Z,94.74
2023-05-19T01:25:36.210Z,94.43
2023-05-19T01:26:36.195Z,94.12
2023-05-19T01:27:36.186Z,94.23
2023-05-19T01:28:36.170Z,93.92
2023-05-19T01:29:36.161Z,93.82
2023-05-19T01:30:36.147Z,94.43
2023-05-19T01:31:36.149Z,94.02
2023-05-19T01:32:36.164Z,93.71
2023-05-19T01:33:36.132Z,94.23
2023-05-19T01:34:36.114Z,93.62
2023-05-19T01:35:36.113Z,92.90
2023-05-19T01:36:36.104Z,93.30
2023-05-19T01:37:36.077Z,93.82
2023-05-19T01:38:36.052Z,94.02
2023-05-19T01:39:36.054Z,93.51
2023-05-19T01:40:36.048Z,93.41
2023-05-19T01:41:36.017Z,92.90
2023-05-19T01:42:36.003Z,92.59
2023-05-19T01:43:35.983Z,92.49
2023-05-19T01:44:36.003Z,92.69
2023-05-19T01:45:35.989Z,93.00
2023-05-19T01:46:36.007Z,93.10
2023-05-19T01:47:36.012Z,93.10
2023-05-19T01:48:35.970Z,93.10
2023-05-19T01:49:35.937Z,93.10
2023-05-19T01:50:35.934Z,93.20
2023-05-19T01:51:35.913Z,93.51
2023-05-19T01:52:35.907Z,93.82
2023-05-19T01:53:35.906Z,93.92
2023-05-19T01:54:35.892Z,93.71
2023-05-19T01:55:35.857Z,93.41
2023-05-19T01:56:35.856Z,93.41
2023-05-19T01:57:35.853Z,93.62
2023-05-19T01:58:35.841Z,93.71
2023-05-19T01:59:35.827Z,93.30
2023-05-19T02:00:35.802Z,93.41
2023-05-19T02:01:35.846Z,93.41
2023-05-19T02:02:35.819Z,93.51
2023-05-19T02:03:35.779Z,93.51
2023-05-19T02:04:35.917Z,93.71
2023-05-19T02:05:35.752Z,94.12
2023-05-19T02:06:35.761Z,94.02
2023-05-19T02:07:35.742Z,93.82
2023-05-19T02:08:35.713Z,93.76
2023-05-19T02:09:35.722Z,93.76
2023-05-19T02:10:35.707Z,94.17
2023-05-19T02:11:35.687Z,94.17
2023-05-19T02:12:35.692Z,93.86
2023-05-19T02:13:35.672Z,93.96
2023-05-19T02:14:35.662Z,94.37
2023-05-19T02:15:35.663Z,93.86
2023-05-19T02:16:35.637Z,93.86
2023-05-19T02:17:35.634Z,93.96
2023-05-19T02:18:35.623Z,93.55
2023-05-19T02:19:35.638Z,93.66
2023-05-19T02:20:35.603Z,93.86
2023-05-19T02:21:35.578Z,93.76
2023-05-19T02:22:35.572Z,93.45
2023-05-19T02:23:35.561Z,93.66
2023-05-19T02:24:35.534Z,93.76
2023-05-19T02:25:35.601Z,93.76
2023-05-19T02:26:35.510Z,93.55
2023-05-19T02:27:35.494Z,93.86
2023-05-19T02:28:35.504Z,93.66
2023-05-19T02:29:35.474Z,93.55
2023-05-19T02:30:35.480Z,93.45
2023-05-19T02:31:35.480Z,93.55
2023-05-19T02:32:35.473Z,93.76
2023-05-19T02:33:35.436Z,93.86
2023-05-19T02:34:35.446Z,94.27
2023-05-19T02:35:35.426Z,93.66
2023-05-19T02:36:35.417Z,93.76
2023-05-19T02:37:35.411Z,93.90
2023-05-19T02:38:35.424Z,93.60
2023-05-19T02:39:35.443Z,93.80
2023-05-19T02:40:35.391Z,94.11
2023-05-19T02:41:35.363Z,94.01
2023-05-19T02:42:35.351Z,93.70
2023-05-19T02:43:35.349Z,93.70
2023-05-19T02:44:35.338Z,93.60
2023-05-19T02:45:35.297Z,93.60
2023-05-19T02:46:35.340Z,93.60
2023-05-19T02:47:37.086Z,93.60
2023-05-19T02:48:35.270Z,93.29
2023-05-19T02:49:35.283Z,92.88
2023-05-19T02:50:35.255Z,93.29
2023-05-19T02:51:35.256Z,93.39
2023-05-19T02:52:35.248Z,93.49
2023-05-19T02:53:35.221Z,93.70
2023-05-19T02:54:35.210Z,93.70
2023-05-19T02:55:35.208Z,93.49
2023-05-19T02:56:35.202Z,93.39
2023-05-19T02:57:35.212Z,93.29
2023-05-19T02:58:35.183Z,93.08
2023-05-19T02:59:35.149Z,92.98
2023-05-19T03:00:35.182Z,92.98
2023-05-19T03:01:35.189Z,93.08
2023-05-19T03:02:35.185Z,92.98
2023-05-19T03:03:35.168Z,92.36
2023-05-19T03:04:35.110Z,92.16
2023-05-19T03:05:35.072Z,92.16
2023-05-19T03:06:35.103Z,91.96
2023-05-19T03:07:35.059Z,92.27
2023-05-19T03:08:35.065Z,91.86
2023-05-19T03:09:35.068Z,91.55
2023-05-19T03:10:35.059Z,91.24
2023-05-19T03:11:35.022Z,91.14
2023-05-19T03:12:35.024Z,91.24
2023-05-19T03:13:35.000Z,91.55
2023-05-19T03:14:35.010Z,92.16
2023-05-19T03:15:34.960Z,91.90
2023-05-19T03:16:35.085Z,92.21
2023-05-19T03:17:35.019Z,92.21
2023-05-19T03:18:34.948Z,91.28
2023-05-19T03:19:34.965Z,90.56
2023-05-19T03:20:34.960Z,90.26
2023-05-19T03:21:34.891Z,90.83
2023-05-19T03:22:34.907Z,91.24
2023-05-19T03:23:34.888Z,91.44
2023-05-19T03:24:34.894Z,91.14
2023-05-19T03:25:34.868Z,91.35
2023-05-19T03:26:34.867Z,91.03
2023-05-19T03:27:34.860Z,90.83
2023-05-19T03:28:34.852Z,89.84
2023-05-19T03:29:34.836Z,90.11
2023-05-19T03:30:34.857Z,90.52
2023-05-19T03:31:34.807Z,90.52
2023-05-19T03:32:34.886Z,90.22
2023-05-19T03:33:34.830Z,90.01
2023-05-19T03:34:34.768Z,90.01
2023-05-19T03:35:34.790Z,90.32
2023-05-19T03:36:34.746Z,90.62
2023-05-19T03:37:34.745Z,90.83
2023-05-19T03:38:34.754Z,91.55
2023-05-19T03:39:34.695Z,90.42
2023-05-19T03:40:34.857Z,90.22
2023-05-19T03:41:34.688Z,90.11
2023-05-19T03:42:34.669Z,89.70
2023-05-19T03:43:34.680Z,90.11
2023-05-19T03:44:34.680Z,90.52
2023-05-19T03:45:34.675Z,90.77
2023-05-19T03:46:34.642Z,90.77
2023-05-19T03:47:34.651Z,90.32
2023-05-19T03:48:34.610Z,90.22
2023-05-19T03:49:34.612Z,90.22
2023-05-19T03:50:34.680Z,90.22
2023-05-19T03:51:34.577Z,90.42
2023-05-19T03:52:34.575Z,89.90
2023-05-19T03:53:34.570Z,89.19
2023-05-19T03:54:34.560Z,89.39
2023-05-19T03:55:34.532Z,89.19
2023-05-19T03:56:34.531Z,89.50
2023-05-19T03:57:34.524Z,90.52
2023-05-19T03:58:34.507Z,90.11
2023-05-19T03:59:34.480Z,90.42
2023-05-19T04:00:34.894Z,90.93
2023-05-19T04:01:34.481Z,90.62
2023-05-19T04:02:34.494Z,91.03
2023-05-19T04:03:34.482Z,91.24
2023-05-19T04:04:34.534Z,91.44
2023-05-19T04:05:34.419Z,91.44
2023-05-19T04:06:34.411Z,91.44
2023-05-19T04:07:34.399Z,91.24
2023-05-19T04:08:34.388Z,91.24
2023-05-19T04:09:34.407Z,91.35
2023-05-19T04:10:34.512Z,91.35
2023-05-19T04:11:34.340Z,91.55
2023-05-19T04:12:34.367Z,91.03
2023-05-19T04:13:34.337Z,91.14
2023-05-19T04:14:34.335Z,91.24
2023-05-19T04:15:34.341Z,91.35
2023-05-19T04:16:34.306Z,91.24
2023-05-19T04:17:34.314Z,91.14
2023-05-19T04:18:34.266Z,91.14
2023-05-19T04:19:34.273Z,90.73
2023-05-19T04:20:34.509Z,90.83
2023-05-19T04:21:34.239Z,90.83
2023-05-19T04:22:34.222Z,91.35
2023-05-19T04:23:34.218Z,91.55
2023-05-19T04:24:34.223Z,91.65
2023-05-19T04:25:34.212Z,91.55
2023-05-19T04:26:34.188Z,91.55
2023-05-19T04:27:34.172Z,91.65
2023-05-19T04:28:34.186Z,91.44
2023-05-19T04:29:34.165Z,91.35
2023-05-19T04:30:34.245Z,91.55
2023-05-19T04:31:34.237Z,91.65
2023-05-19T04:32:34.156Z,91.03
2023-05-19T04:33:34.109Z,90.83
2023-05-19T04:34:34.100Z,90.83
2023-05-19T04:35:34.121Z,91.24
2023-05-19T04:36:34.208Z,91.03
2023-05-19T04:37:34.056Z,90.93
2023-05-19T04:38:34.055Z,91.03
2023-05-19T04:39:34.045Z,91.35
2023-05-19T04:40:34.235Z,91.35
2023-05-19T04:41:34.011Z,91.55
2023-05-19T04:42:34.019Z,91.44
2023-05-19T04:43:33.983Z,91.14
2023-05-19T04:44:33.981Z,90.93
2023-05-19T04:45:33.975Z,91.14
2023-05-19T04:46:34.056Z,90.01
2023-05-19T04:47:33.946Z,90.22
2023-05-19T04:48:33.931Z,89.70
2023-05-19T04:49:33.930Z,88.98
2023-05-19T04:50:34.139Z,89.45
2023-05-19T04:51:33.909Z,88.64
2023-05-19T04:52:33.927Z,88.53
2023-05-19T04:53:33.893Z,88.12
2023-05-19T04:54:33.874Z,88.74
2023-05-19T04:55:33.870Z,88.94
2023-05-19T04:56:33.858Z,87.82
2023-05-19T04:57:33.842Z,87.41
2023-05-19T04:58:33.846Z,87.61
2023-05-19T04:59:33.818Z,87.20
2023-05-19T05:00:34.014Z,86.85
2023-05-19T05:01:33.877Z,87.47
2023-05-19T05:02:33.809Z,87.88
2023-05-19T05:03:33.895Z,87.57
2023-05-19T05:04:33.762Z,87.57
2023-05-19T05:05:33.739Z,87.57
2023-05-19T05:06:33.762Z,86.44
2023-05-19T05:07:33.730Z,87.16
2023-05-19T05:08:33.707Z,87.67
2023-05-19T05:09:33.703Z,88.08
2023-05-19T05:10:33.884Z,87.26
2023-05-19T05:11:33.681Z,86.85
2023-05-19T05:12:33.660Z,86.85
2023-05-19T05:13:33.663Z,87.02
2023-05-19T05:14:33.640Z,87.63
2023-05-19T05:15:33.646Z,86.91
2023-05-19T05:16:33.681Z,87.73
2023-05-19T05:17:33.660Z,87.43
2023-05-19T05:18:33.613Z,87.53
2023-05-19T05:19:33.696Z,86.81
2023-05-19T05:20:33.743Z,86.10
2023-05-19T05:21:33.573Z,86.10
2023-05-19T05:22:33.583Z,85.48
2023-05-19T05:23:33.543Z,85.69
2023-05-19T05:24:33.531Z,85.79
2023-05-19T05:25:33.660Z,85.99
2023-05-19T05:26:33.528Z,85.44
2023-05-19T05:27:33.519Z,85.96
2023-05-19T05:28:33.473Z,86.67
2023-05-19T05:29:33.495Z,87.18
2023-05-19T05:30:33.461Z,86.26
2023-05-19T05:31:33.472Z,85.96
2023-05-19T05:32:33.529Z,86.16
2023-05-19T05:33:33.473Z,86.67
2023-05-19T05:34:33.422Z,86.16
2023-05-19T05:35:33.621Z,85.85
2023-05-19T05:36:33.389Z,86.46
2023-05-19T05:37:33.399Z,87.59
2023-05-19T05:38:33.391Z,87.38
2023-05-19T05:39:33.370Z,87.70
2023-05-19T05:40:33.373Z,85.55
2023-05-19T05:41:33.358Z,84.93
2023-05-19T05:42:33.348Z,85.03
2023-05-19T05:43:33.319Z,84.93
2023-05-19T05:44:33.309Z,85.24
2023-05-19T05:45:33.578Z,85.40
2023-05-19T05:46:33.362Z,84.89
2023-05-19T05:47:33.305Z,85.10
2023-05-19T05:48:33.263Z,85.10
2023-05-19T05:49:33.262Z,84.38
2023-05-19T05:50:33.242Z,84.89
2023-05-19T05:51:33.260Z,86.12
2023-05-19T05:52:33.218Z,84.89
2023-05-19T05:53:33.221Z,84.28
2023-05-19T05:54:33.258Z,84.17
2023-05-19T05:55:33.349Z,84.58
2023-05-19T05:56:33.192Z,85.40
2023-05-19T05:57:33.173Z,84.28
2023-05-19T05:58:33.169Z,84.99
2023-05-19T05:59:33.141Z,85.10
2023-05-19T06:00:33.376Z,84.89
2023-05-19T06:01:35.452Z,84.99
2023-05-19T06:02:33.159Z,84.89
2023-05-19T06:03:33.112Z,84.89
2023-05-19T06:04:33.071Z,84.44
2023-05-19T06:05:33.116Z,84.95
2023-05-19T06:06:33.060Z,84.14
2023-05-19T06:07:33.077Z,84.34
2023-05-19T06:08:33.037Z,85.06
2023-05-19T06:09:33.047Z,84.34
2023-05-19T06:10:33.416Z,84.44
2023-05-19T06:11:33.040Z,84.03
2023-05-19T06:12:32.992Z,84.55
2023-05-19T06:13:32.985Z,84.65
2023-05-19T06:14:32.963Z,84.55
2023-05-19T06:15:33.032Z,85.97
2023-05-19T06:16:33.074Z,83.42
2023-05-19T06:17:33.019Z,83.83
2023-05-19T06:18:32.946Z,84.14
2023-05-19T06:19:32.926Z,83.22
2023-05-19T06:20:33.122Z,83.22
2023-05-19T06:21:32.917Z,83.28
2023-05-19T06:22:32.899Z,83.69
2023-05-19T06:23:32.888Z,85.02
2023-05-19T06:24:32.853Z,83.79
2023-05-19T06:25:33.064Z,84.91
2023-05-19T06:26:32.849Z,83.48
2023-05-19T06:27:34.720Z,82.97
2023-05-19T06:28:32.828Z,82.67
2023-05-19T06:29:32.801Z,82.77
2023-05-19T06:30:33.022Z,82.93
2023-05-19T06:31:32.843Z,83.24
2023-05-19T06:32:32.806Z,83.54
2023-05-19T06:33:32.774Z,83.34
2023-05-19T06:34:32.768Z,82.32
2023-05-19T06:35:32.757Z,82.42
2023-05-19T06:36:32.740Z,82.12
2023-05-19T06:37:32.803Z,81.91
2023-05-19T06:38:32.709Z,81.91
2023-05-19T06:39:32.713Z,81.71
2023-05-19T06:40:32.903Z,81.40
2023-05-19T06:41:32.691Z,81.71
2023-05-19T06:42:32.689Z,83.14
2023-05-19T06:43:32.679Z,82.18
2023-05-19T06:44:32.649Z,82.08
2023-05-19T06:45:32.646Z,83.61
2023-05-19T06:46:32.696Z,81.67
2023-05-19T06:47:32.685Z,81.05
2023-05-19T06:48:32.612Z,82.28
2023-05-19T06:49:32.607Z,82.69
2023-05-19T06:50:32.773Z,81.87
2023-05-19T06:51:32.601Z,82.49
2023-05-19T06:52:32.543Z,82.28
2023-05-19T06:53:32.544Z,81.77
2023-05-19T06:54:32.546Z,81.77
2023-05-19T06:55:33.479Z,80.75
2023-05-19T06:56:32.515Z,80.55
2023-05-19T06:57:32.517Z,81.46
2023-05-19T06:58:32.501Z,81.37
2023-05-19T06:59:32.501Z,81.26
2023-05-19T07:00:32.640Z,81.37
2023-05-19T07:01:32.491Z,81.87
2023-05-19T07:02:32.605Z,80.65
2023-05-19T07:03:32.522Z,79.93
2023-05-19T07:04:32.424Z,79.63
2023-05-19T07:05:32.424Z,80.00
2023-05-19T07:06:32.397Z,79.59
2023-05-19T07:07:32.390Z,79.80
2023-05-19T07:08:32.364Z,79.69
2023-05-19T07:09:32.373Z,80.10
2023-05-19T07:10:32.515Z,80.00
2023-05-19T07:11:32.357Z,80.82
2023-05-19T07:12:32.451Z,80.20
2023-05-19T07:13:32.337Z,79.90
2023-05-19T07:14:32.308Z,79.80
2023-05-19T07:15:32.306Z,79.39
2023-05-19T07:16:32.378Z,79.04
2023-05-19T07:17:32.308Z,79.55
2023-05-19T07:18:32.278Z,79.55
2023-05-19T07:19:32.342Z,78.74
2023-05-19T07:20:32.461Z,79.55
2023-05-19T07:21:32.246Z,80.51
2023-05-19T07:22:32.228Z,79.49
2023-05-19T07:23:32.201Z,78.33
2023-05-19T07:24:32.225Z,78.64
2023-05-19T07:25:32.183Z,78.53
2023-05-19T07:26:32.186Z,79.35
2023-05-19T07:27:32.173Z,79.55
2023-05-19T07:28:32.160Z,79.75
2023-05-19T07:29:32.154Z,80.37
2023-05-19T07:30:32.363Z,78.23
2023-05-19T07:31:32.161Z,77.72
2023-05-19T07:32:32.170Z,78.53
2023-05-19T07:33:32.109Z,77.92
2023-05-19T07:34:32.097Z,78.23
2023-05-19T07:35:32.097Z,77.51
2023-05-19T07:36:32.065Z,78.53
2023-05-19T07:37:32.068Z,78.94
2023-05-19T07:38:32.047Z,78.94
2023-05-19T07:39:32.050Z,77.92
2023-05-19T07:40:32.311Z,77.82
2023-05-19T07:41:33.217Z,78.23
2023-05-19T07:42:32.013Z,78.12
2023-05-19T07:43:31.984Z,78.43
2023-05-19T07:44:31.989Z,78.43
2023-05-19T07:45:32.027Z,78.12
2023-05-19T07:46:32.039Z,78.50
2023-05-19T07:47:32.000Z,77.89
2023-05-19T07:48:31.932Z,78.09
2023-05-19T07:49:31.906Z,77.98
2023-05-19T07:50:32.207Z,78.19
2023-05-19T07:51:31.911Z,78.50
2023-05-19T07:52:31.909Z,78.91
2023-05-19T07:53:31.891Z,78.30
2023-05-19T07:54:31.856Z,78.19
2023-05-19T07:55:31.863Z,77.85
2023-05-19T07:56:31.846Z,77.64
2023-05-19T07:57:31.842Z,77.24
2023-05-19T07:58:31.816Z,77.85
2023-05-19T07:59:31.809Z,77.34
2023-05-19T08:00:32.144Z,78.05
2023-05-19T08:01:31.798Z,76.93
2023-05-19T08:02:31.798Z,76.62
2023-05-19T08:03:31.911Z,77.03
2023-05-19T08:04:31.788Z,76.79
2023-05-19T08:05:31.757Z,77.40
2023-05-19T08:06:31.735Z,77.40
2023-05-19T08:07:31.742Z,78.22
2023-05-19T08:08:31.706Z,76.59
2023-05-19T08:09:31.707Z,76.15
2023-05-19T08:10:31.919Z,76.25
2023-05-19T08:11:31.686Z,75.37
2023-05-19T08:12:31.657Z,75.88
2023-05-19T08:13:31.664Z,76.76
2023-05-19T08:14:31.667Z,76.28
2023-05-19T08:15:31.685Z,76.49
2023-05-19T08:16:31.650Z,75.47
2023-05-19T08:17:31.702Z,75.67
2023-05-19T08:18:31.634Z,76.08
2023-05-19T08:19:31.658Z,75.98
2023-05-19T08:20:31.845Z,75.57
2023-05-19T08:21:31.589Z,76.08
2023-05-19T08:22:31.548Z,76.08
2023-05-19T08:23:31.555Z,75.88
2023-05-19T08:24:31.525Z,75.98
2023-05-19T08:25:31.528Z,75.98
2023-05-19T08:26:31.489Z,75.98
2023-05-19T08:27:31.509Z,76.18
2023-05-19T08:28:31.508Z,76.59
2023-05-19T08:29:31.476Z,75.64
2023-05-19T08:30:31.678Z,76.04
2023-05-19T08:31:31.606Z,76.15
2023-05-19T08:32:31.476Z,76.01
2023-05-19T08:33:31.503Z,75.91
2023-05-19T08:34:31.427Z,76.52
2023-05-19T08:35:31.414Z,76.01
2023-05-19T08:36:31.406Z,75.60
2023-05-19T08:37:34.002Z,76.38
2023-05-19T08:38:31.381Z,75.09
2023-05-19T08:39:31.373Z,74.99
2023-05-19T08:40:31.727Z,74.79
2023-05-19T08:41:31.346Z,75.91
2023-05-19T08:42:31.344Z,76.42
2023-05-19T08:43:31.334Z,75.40
2023-05-19T08:44:31.314Z,75.70
2023-05-19T08:45:31.503Z,75.81
2023-05-19T08:46:31.351Z,75.50
2023-05-19T08:47:31.326Z,74.65
2023-05-19T08:48:31.271Z,74.76
2023-05-19T08:49:31.251Z,74.65
2023-05-19T08:50:31.377Z,75.12
2023-05-19T08:51:31.255Z,74.92
2023-05-19T08:52:31.220Z,73.60
2023-05-19T08:53:34.215Z,74.85
2023-05-19T08:54:31.191Z,74.55
2023-05-19T08:55:31.558Z,74.89
2023-05-19T08:56:31.169Z,74.89
2023-05-19T08:57:31.151Z,74.89
2023-05-19T08:58:31.150Z,75.30
2023-05-19T08:59:31.155Z,75.30
2023-05-19T09:00:31.633Z,74.79
2023-05-19T09:01:31.227Z,75.09
2023-05-19T09:02:31.142Z,74.89
2023-05-19T09:03:31.169Z,74.18
2023-05-19T09:04:31.165Z,75.20
2023-05-19T09:05:31.319Z,74.48
2023-05-19T09:06:31.067Z,76.31
2023-05-19T09:07:31.043Z,74.45
2023-05-19T09:08:31.028Z,74.45
2023-05-19T09:09:31.042Z,73.84
2023-05-19T09:10:31.030Z,72.92
2023-05-19T09:11:31.016Z,74.65
2023-05-19T09:12:31.002Z,73.70
2023-05-19T09:13:30.992Z,73.91
2023-05-19T09:14:30.965Z,74.01
2023-05-19T09:15:31.113Z,73.19
2023-05-19T09:16:30.992Z,74.52
2023-05-19T09:17:30.983Z,73.50
2023-05-19T09:18:30.939Z,72.38
2023-05-19T09:19:31.042Z,72.69
2023-05-19T09:20:30.920Z,72.17
2023-05-19T09:21:30.924Z,72.89
2023-05-19T09:22:30.888Z,74.41
2023-05-19T09:23:30.857Z,72.48
2023-05-19T09:24:30.882Z,71.67
2023-05-19T09:25:30.978Z,73.06
2023-05-19T09:26:30.857Z,71.57
2023-05-19T09:27:30.838Z,72.28
2023-05-19T09:28:30.809Z,72.78
2023-05-19T09:29:30.806Z,73.19
2023-05-19T09:30:30.814Z,73.13
2023-05-19T09:31:30.820Z,73.74
2023-05-19T09:32:30.842Z,72.28
2023-05-19T09:33:31.133Z,71.97
2023-05-19T09:34:30.766Z,71.87
2023-05-19T09:35:30.887Z,72.28
2023-05-19T09:36:30.779Z,71.16
2023-05-19T09:37:30.739Z,71.47
2023-05-19T09:38:30.714Z,71.67
2023-05-19T09:39:30.698Z,73.80
2023-05-19T09:40:30.690Z,72.75
2023-05-19T09:41:30.681Z,71.84
2023-05-19T09:42:30.681Z,71.84
2023-05-19T09:43:30.638Z,71.67
2023-05-19T09:44:30.692Z,71.47
2023-05-19T09:45:30.670Z,72.69
2023-05-19T09:46:30.629Z,71.67
2023-05-19T09:47:30.658Z,72.38
2023-05-19T09:48:30.610Z,72.99
2023-05-19T09:49:30.565Z,72.89
2023-05-19T09:50:30.573Z,72.28
2023-05-19T09:51:30.547Z,72.78
2023-05-19T09:52:30.553Z,72.99
2023-05-19T09:53:30.532Z,74.52
2023-05-19T09:54:30.536Z,74.41
2023-05-19T09:55:31.108Z,74.31
2023-05-19T09:56:30.521Z,74.72
2023-05-19T09:57:30.490Z,73.91
2023-05-19T09:58:30.491Z,74.11
2023-05-19T09:59:32.992Z,72.99
2023-05-19T10:00:30.633Z,73.09
2023-05-19T10:01:30.493Z,72.62
2023-05-19T10:02:30.494Z,74.01
2023-05-19T10:03:30.454Z,73.50
2023-05-19T10:04:30.484Z,73.70
2023-05-19T10:05:30.445Z,73.50
2023-05-19T10:06:30.413Z,73.23
2023-05-19T10:07:30.386Z,73.43
2023-05-19T10:08:30.634Z,72.62
2023-05-19T10:09:30.357Z,73.43
2023-05-19T10:10:30.359Z,73.33
2023-05-19T10:11:30.330Z,73.84
2023-05-19T10:12:30.320Z,73.43
2023-05-19T10:13:30.314Z,73.84
2023-05-19T10:14:30.352Z,74.24
2023-05-19T10:15:30.534Z,73.54
2023-05-19T10:16:30.315Z,72.11
2023-05-19T10:17:30.279Z,73.02
2023-05-19T10:18:30.276Z,73.54
2023-05-19T10:19:30.313Z,73.02
2023-05-19T10:20:30.500Z,73.94
2023-05-19T10:21:30.247Z,73.63
2023-05-19T10:22:30.227Z,73.02
2023-05-19T10:23:30.224Z,72.31
2023-05-19T10:24:30.207Z,72.62
2023-05-19T10:25:30.180Z,72.38
2023-05-19T10:26:30.161Z,72.99
2023-05-19T10:27:30.161Z,74.31
2023-05-19T10:28:30.152Z,73.80
2023-05-19T10:29:30.127Z,74.11
2023-05-19T10:30:30.134Z,72.52
2023-05-19T10:31:30.153Z,72.82
2023-05-19T10:32:30.197Z,72.82
2023-05-19T10:33:30.080Z,73.23
2023-05-19T10:34:30.149Z,73.33
2023-05-19T10:35:31.098Z,72.92
2023-05-19T10:36:30.083Z,73.33
2023-05-19T10:37:30.047Z,74.96
2023-05-19T10:38:30.051Z,74.65
2023-05-19T10:39:30.023Z,73.84
2023-05-19T10:40:30.050Z,73.54
2023-05-19T10:41:30.000Z,73.63
2023-05-19T10:42:29.997Z,73.23
2023-05-19T10:43:29.967Z,73.43
2023-05-19T10:44:29.958Z,74.04
2023-05-19T10:45:29.942Z,74.35
2023-05-19T10:46:29.981Z,74.04
2023-05-19T10:47:29.929Z,73.54
2023-05-19T10:48:29.932Z,72.99
2023-05-19T10:49:29.896Z,73.91
2023-05-19T10:50:29.909Z,73.70
2023-05-19T10:51:29.915Z,72.75
2023-05-19T10:52:29.880Z,72.25
2023-05-19T10:53:29.851Z,73.26
2023-05-19T10:54:29.861Z,73.77
2023-05-19T10:55:29.868Z,72.45
2023-05-19T10:56:29.841Z,72.65
2023-05-19T10:57:29.836Z,73.46
2023-05-19T10:58:29.802Z,72.04
2023-05-19T10:59:29.811Z,73.19
2023-05-19T11:00:29.805Z,72.48
2023-05-19T11:01:29.790Z,72.99
2023-05-19T11:02:29.790Z,73.70
2023-05-19T11:04:29.828Z,73.46
2023-05-19T11:05:29.754Z,72.55
2023-05-19T11:06:29.761Z,73.06
2023-05-19T11:07:29.714Z,72.04
2023-05-19T11:08:29.722Z,72.48
2023-05-19T11:09:39.728Z,72.08
2023-05-19T11:10:29.694Z,72.58
2023-05-19T11:11:29.669Z,72.89
2023-05-19T11:12:29.643Z,73.70
2023-05-19T11:13:29.654Z,72.48
2023-05-19T11:14:29.657Z,72.69
2023-05-19T11:15:29.649Z,73.80
2023-05-19T11:16:29.706Z,73.19
2023-05-19T11:17:29.649Z,73.30
2023-05-19T11:18:29.594Z,73.39
2023-05-19T11:19:29.755Z,73.80
2023-05-19T11:20:29.572Z,73.80
2023-05-19T11:21:29.671Z,73.30
2023-05-19T11:22:29.577Z,73.50
2023-05-19T11:23:29.589Z,73.19
2023-05-19T11:24:29.518Z,74.21
2023-05-19T11:25:29.510Z,73.19
2023-05-19T11:26:29.513Z,74.45
2023-05-19T11:27:29.475Z,75.23
2023-05-19T11:28:29.487Z,74.92
2023-05-19T11:29:29.469Z,74.21
2023-05-19T11:30:29.474Z,73.60
2023-05-19T11:31:29.496Z,72.78
2023-05-19T11:32:29.604Z,72.69
2023-05-19T11:33:29.416Z,73.70
2023-05-19T11:34:29.445Z,72.69
2023-05-19T11:35:29.402Z,74.01
2023-05-19T11:36:29.389Z,72.99
2023-05-19T11:37:29.386Z,74.52
2023-05-19T11:38:29.357Z,73.19
2023-05-19T11:39:29.356Z,74.21
2023-05-19T11:40:29.357Z,74.62
2023-05-19T11:41:29.347Z,74.11
2023-05-19T11:42:29.309Z,73.70
2023-05-19T11:43:29.298Z,74.31
2023-05-19T11:44:29.288Z,73.91
2023-05-19T11:45:29.298Z,72.99
2023-05-19T11:46:29.359Z,72.99
2023-05-19T11:47:29.909Z,73.80
2023-05-19T11:48:29.286Z,73.60
2023-05-19T11:49:29.231Z,73.39
2023-05-19T11:50:29.243Z,73.80
2023-05-19T11:51:29.237Z,75.02
2023-05-19T11:52:29.218Z,74.28
2023-05-19T11:53:29.203Z,73.57
2023-05-19T11:54:29.200Z,73.06
2023-05-19T11:55:29.182Z,73.16
2023-05-19T11:56:29.172Z,74.18
2023-05-19T11:57:29.180Z,74.88
2023-05-19T11:58:29.164Z,73.36
2023-05-19T11:59:29.126Z,73.74
2023-05-19T12:00:29.112Z,73.26
2023-05-19T12:01:29.104Z,72.65
2023-05-19T12:02:29.157Z,73.63
2023-05-19T12:03:29.178Z,74.24
2023-05-19T12:04:29.129Z,73.22
2023-05-19T12:05:29.096Z,72.11
2023-05-19T12:06:29.099Z,72.04
2023-05-19T12:07:29.040Z,73.16
2023-05-19T12:08:29.032Z,72.85
2023-05-19T12:09:29.014Z,73.26
2023-05-19T12:10:29.021Z,73.36
2023-05-19T12:11:28.996Z,72.21
2023-05-19T12:12:28.974Z,72.21
2023-05-19T12:13:28.967Z,72.34
2023-05-19T12:14:28.967Z,72.45
2023-05-19T12:15:28.962Z,72.75
2023-05-19T12:16:30.576Z,73.67
2023-05-19T12:17:28.943Z,73.57
2023-05-19T12:18:28.913Z,71.94
2023-05-19T12:19:29.013Z,72.55
2023-05-19T12:20:28.911Z,72.04
2023-05-19T12:21:34.322Z,72.38
2023-05-19T12:22:28.868Z,72.99
2023-05-19T12:23:28.861Z,72.78
2023-05-19T12:24:28.876Z,72.89
2023-05-19T12:25:28.839Z,73.46
2023-05-19T12:26:28.829Z,72.25
2023-05-19T12:27:28.831Z,72.96
2023-05-19T12:28:28.803Z,72.55
2023-05-19T12:29:28.850Z,72.14
2023-05-19T12:30:29.069Z,72.21
2023-05-19T12:31:28.806Z,73.33
2023-05-19T12:32:28.992Z,72.72
2023-05-19T12:33:28.771Z,72.82
2023-05-19T12:34:28.754Z,72.72
2023-05-19T12:35:28.717Z,73.83
2023-05-19T12:36:28.724Z,72.41
2023-05-19T12:37:28.702Z,71.70
2023-05-19T12:38:28.906Z,72.31
2023-05-19T12:39:28.700Z,71.60
2023-05-19T12:40:28.679Z,72.21
2023-05-19T12:41:28.657Z,72.69
2023-05-19T12:42:28.657Z,71.70
2023-05-19T12:43:28.627Z,72.52
2023-05-19T12:44:28.641Z,71.91
2023-05-19T12:45:29.009Z,71.60
2023-05-19T12:46:28.689Z,72.62
2023-05-19T12:47:28.631Z,70.89
2023-05-19T12:48:28.587Z,72.11
2023-05-19T12:49:28.568Z,71.50
2023-05-19T12:50:28.555Z,72.52
2023-05-19T12:51:28.543Z,73.02
2023-05-19T12:52:28.546Z,72.72
2023-05-19T12:53:28.528Z,71.60